Time;durP1;ratioP1;P1;durP2;ratioP2;P2;SDS_P1;SDS_P2;PMS_P1;PMS_P2;Temp;Humidity;BMP_temperature;BMP_pressure;BME280_temperature;BME280_humidity;BME280_pressure;Samples;Min_cycle;Max_cycle;Signal;HPM_P1;HPM_P2
2021/05/08 00:02:05;;;;;;;31.87;9.30;;;4.30;99.90;;;;;;4994359;28;20610;-83
2021/05/08 00:04:32;;;;;;;33.03;9.23;;;4.30;99.90;;;;;;4993856;28;20451;-82
2021/05/08 00:07:04;;;;;;;30.50;8.27;;;4.20;99.90;;;;;;4991836;28;20551;-81
2021/05/08 00:10:08;;;;;;;31.40;9.27;;;4.20;99.90;;;;;;4989845;28;20459;-79
2021/05/08 00:12:40;;;;;;;33.17;9.57;;;4.20;99.90;;;;;;4977464;28;20458;-81
2021/05/08 00:15:10;;;;;;;31.80;9.47;;;4.30;99.90;;;;;;4996705;28;20542;-80
2021/05/08 00:17:36;;;;;;;34.10;10.17;;;4.30;99.90;;;;;;4996355;28;20543;-81
2021/05/08 00:20:08;;;;;;;31.53;9.73;;;4.30;99.90;;;;;;4995538;28;20433;-81
2021/05/08 00:22:35;;;;;;;29.00;8.57;;;4.30;99.90;;;;;;4995659;28;20528;-83
2021/05/08 00:25:01;;;;;;;32.30;8.10;;;4.30;99.90;;;;;;4996370;28;20464;-83
2021/05/08 00:27:27;;;;;;;33.70;10.20;;;4.40;99.90;;;;;;4995857;28;20470;-80
2021/05/08 00:29:54;;;;;;;32.37;10.10;;;4.50;99.90;;;;;;4996048;28;20456;-82
2021/05/08 00:32:21;;;;;;;30.17;9.60;;;4.50;99.90;;;;;;4995174;28;20431;-80
2021/05/08 00:34:47;;;;;;;32.60;9.57;;;4.40;99.90;;;;;;4997499;28;20448;-81
2021/05/08 00:37:13;;;;;;;28.87;8.47;;;4.40;99.90;;;;;;4988217;28;20470;-78
2021/05/08 00:39:40;;;;;;;30.47;8.53;;;4.40;99.90;;;;;;4993404;28;20462;-82
2021/05/08 00:42:09;;;;;;;31.17;8.63;;;4.50;99.90;;;;;;4995603;28;20831;-81
2021/05/08 00:44:38;;;;;;;29.60;9.57;;;4.50;99.90;;;;;;4995189;28;20535;-79
2021/05/08 00:47:04;;;;;;;31.70;11.20;;;4.40;99.90;;;;;;4995157;28;20979;-79
2021/05/08 00:49:31;;;;;;;31.00;10.30;;;4.40;99.90;;;;;;4996005;28;20950;-82
2021/05/08 00:52:00;;;;;;;32.20;9.70;;;4.40;99.90;;;;;;4995028;28;20432;-82
2021/05/08 00:54:37;;;;;;;;;;;;;;;;;;;;;
2021/05/08 01:00:41;;;;;;;31.77;11.00;;;4.30;99.90;;;;;;4848824;29;20992;-83
2021/05/08 01:03:08;;;;;;;28.10;9.57;;;4.30;99.90;;;;;;4841379;29;20542;-84
2021/05/08 01:05:47;;;;;;;30.20;9.37;;;4.40;99.90;;;;;;4895425;29;20483;-81
2021/05/08 01:08:14;;;;;;;29.50;9.70;;;4.40;99.90;;;;;;4917954;29;20438;-81
2021/05/08 01:10:58;;;;;;;30.53;10.30;;;4.40;99.90;;;;;;4953318;28;20510;-80
2021/05/08 01:19:01;;;;;;;33.67;11.67;;;4.30;99.90;;;;;;5002328;28;20488;-81
2021/05/08 01:21:38;;;;;;;28.57;10.50;;;4.20;99.90;;;;;;4980185;28;20900;-80
2021/05/08 01:24:05;;;;;;;30.60;10.53;;;4.30;99.90;;;;;;5000584;28;20446;-83
2021/05/08 01:26:43;;;;;;;30.43;11.37;;;4.40;99.90;;;;;;4998163;28;20476;-81
2021/05/08 01:32:00;;;;;;;29.17;11.00;;;4.70;99.90;;;;;;4971062;28;20457;-79
2021/05/08 01:34:26;;;;;;;29.40;10.60;;;4.80;99.90;;;;;;5000411;28;20449;-81
2021/05/08 01:37:09;;;;;;;;;;;;;;;;;;;;;
2021/05/08 01:40:07;;;;;;;30.17;11.40;;;5.00;99.90;;;;;;4990186;28;20458;-79
2021/05/08 01:42:36;;;;;;;30.17;10.67;;;4.90;99.90;;;;;;4991058;28;20464;-84
2021/05/08 01:45:08;;;;;;;30.70;11.53;;;4.80;99.90;;;;;;5000807;28;20470;-80
2021/05/08 01:47:35;;;;;;;29.73;11.23;;;4.70;99.90;;;;;;5000612;28;20527;-82
2021/05/08 01:50:01;;;;;;;30.40;12.20;;;4.70;99.90;;;;;;4994102;28;20514;-79
2021/05/08 01:52:28;;;;;;;29.00;11.20;;;4.60;99.90;;;;;;5000118;28;20458;-83
2021/05/08 01:54:55;;;;;;;25.53;10.10;;;4.60;99.90;;;;;;5000264;28;20880;-83
2021/05/08 01:57:21;;;;;;;28.90;10.63;;;4.60;99.90;;;;;;5001611;28;20462;-79
2021/05/08 01:59:55;;;;;;;28.20;10.17;;;4.60;99.90;;;;;;5000805;28;20516;-80
2021/05/08 02:02:22;;;;;;;26.93;10.27;;;4.60;99.90;;;;;;5000775;28;20454;-80
2021/05/08 02:04:48;;;;;;;29.83;11.37;;;4.70;99.90;;;;;;5002857;28;20434;-80
2021/05/08 02:07:14;;;;;;;29.70;11.20;;;4.70;99.90;;;;;;5002181;28;20474;-86
2021/05/08 02:09:42;;;;;;;28.93;11.80;;;4.70;99.90;;;;;;4998887;28;20485;-83
2021/05/08 02:12:08;;;;;;;28.47;10.83;;;4.70;99.90;;;;;;4998928;28;20455;-84
2021/05/08 02:14:36;;;;;;;28.57;12.10;;;4.60;99.90;;;;;;4999275;28;20551;-81
2021/05/08 02:17:02;;;;;;;27.67;10.73;;;4.60;99.90;;;;;;4999107;28;20547;-79
2021/05/08 02:19:29;;;;;;;28.67;11.70;;;4.40;99.90;;;;;;4999138;28;20434;-84
2021/05/08 02:21:57;;;;;;;30.10;11.73;;;4.30;99.90;;;;;;4999094;28;20504;-81
2021/05/08 02:24:27;;;;;;;26.40;10.50;;;4.30;99.90;;;;;;4999017;28;20480;-84
2021/05/08 02:26:54;;;;;;;27.70;10.83;;;4.30;99.90;;;;;;4998954;28;20481;-82
2021/05/08 02:29:27;;;;;;;32.03;12.23;;;4.20;99.90;;;;;;4999516;28;20429;-82
2021/05/08 02:31:57;;;;;;;29.03;10.37;;;4.20;99.90;;;;;;4997947;28;20521;-81
2021/05/08 02:34:24;;;;;;;32.73;11.77;;;4.10;99.90;;;;;;4996953;28;20463;-83
2021/05/08 02:36:50;;;;;;;30.37;11.23;;;4.00;99.90;;;;;;4998275;28;20569;-82
2021/05/08 02:39:16;;;;;;;27.47;10.27;;;4.00;99.90;;;;;;4997480;28;20541;-80
2021/05/08 02:41:49;;;;;;;32.03;12.30;;;3.90;99.90;;;;;;4998847;28;20452;-81
2021/05/08 02:44:22;;;;;;;28.23;11.10;;;3.90;99.90;;;;;;4998185;28;20538;-81
2021/05/08 02:46:48;;;;;;;26.50;10.70;;;3.80;99.90;;;;;;5000124;28;20445;-83
2021/05/08 02:49:14;;;;;;;27.07;10.87;;;3.80;99.90;;;;;;4997591;28;20481;-83
2021/05/08 02:51:41;;;;;;;28.27;11.80;;;3.80;99.90;;;;;;4997083;28;21080;-83
2021/05/08 02:54:07;;;;;;;31.73;11.77;;;3.80;99.90;;;;;;4997599;28;20457;-84
2021/05/08 02:56:34;;;;;;;30.70;12.27;;;3.80;99.90;;;;;;4998260;28;20835;-82
2021/05/08 02:59:00;;;;;;;29.20;11.37;;;3.70;99.90;;;;;;4997251;28;20993;-81
2021/05/08 03:01:27;;;;;;;27.90;10.60;;;3.70;99.90;;;;;;4997396;28;20450;-83
2021/05/08 03:03:56;;;;;;;28.30;11.30;;;3.70;99.90;;;;;;4997517;28;20477;-83
2021/05/08 03:06:25;;;;;;;28.50;12.13;;;3.70;99.90;;;;;;4997331;28;20605;-81
2021/05/08 03:08:51;;;;;;;32.70;12.63;;;3.70;99.90;;;;;;4997951;28;20436;-82
2021/05/08 03:11:24;;;;;;;32.13;13.30;;;3.70;99.90;;;;;;4997735;28;20465;-84
2021/05/08 03:13:50;;;;;;;28.97;11.73;;;3.70;99.90;;;;;;4979097;28;20486;-85
2021/05/08 03:16:16;;;;;;;29.00;12.07;;;3.60;99.90;;;;;;4987076;28;20482;-82
2021/05/08 03:18:54;;;;;;;28.53;12.33;;;3.60;99.90;;;;;;4998106;28;20523;-83
2021/05/08 03:21:20;;;;;;;27.87;11.83;;;3.60;99.90;;;;;;4997425;28;20409;-85
2021/05/08 03:23:48;;;;;;;27.60;10.97;;;3.60;99.90;;;;;;4997493;28;20465;-80
2021/05/08 03:26:14;;;;;;;29.90;11.73;;;3.60;99.90;;;;;;4999930;28;20454;-84
2021/05/08 03:28:42;;;;;;;28.70;11.10;;;3.70;99.90;;;;;;4999785;28;20542;-82
2021/05/08 03:31:14;;;;;;;28.93;10.80;;;3.70;99.90;;;;;;4998218;28;20450;-82
2021/05/08 03:33:40;;;;;;;30.20;12.50;;;3.90;99.90;;;;;;4997903;28;20808;-80
2021/05/08 03:39:00;;;;;;;34.33;13.07;;;4.10;99.90;;;;;;4991734;28;20856;-79
2021/05/08 03:41:37;;;;;;;30.43;13.53;;;4.30;99.90;;;;;;4996916;28;20465;-81
2021/05/08 03:44:13;;;;;;;28.80;11.80;;;4.30;99.90;;;;;;4998440;28;20826;-83
2021/05/08 03:50:09;;;;;;;30.57;14.33;;;4.50;99.90;;;;;;4895868;29;20439;-82
2021/05/08 03:52:36;;;;;;;31.67;13.53;;;4.60;99.90;;;;;;4929731;29;20524;-85
2021/05/08 03:55:15;;;;;;;43.63;13.53;;;4.70;99.90;;;;;;4967004;28;20478;-80
2021/05/08 04:01:10;;;;;;;32.10;13.80;;;4.80;99.90;;;;;;4912567;28;20479;-82
2021/05/08 04:03:36;;;;;;;65.63;19.87;;;4.80;99.90;;;;;;4996866;28;20475;-81
2021/05/08 04:10:02;;;;;;;27.83;13.10;;;4.70;99.90;;;;;;4847137;29;20449;-79
2021/05/08 04:12:38;;;;;;;;;;;;;;;;;;;;;
2021/05/08 04:18:00;;;;;;;28.47;12.60;;;4.60;99.90;;;;;;5026354;23;20519;-83
2021/05/08 04:20:27;;;;;;;29.07;13.10;;;4.50;99.90;;;;;;5012123;28;20449;-83
2021/05/08 04:22:53;;;;;;;29.63;13.40;;;4.50;99.90;;;;;;5013673;28;20440;-81
2021/05/08 04:25:20;;;;;;;43.43;14.87;;;4.50;99.90;;;;;;5010532;28;20955;-83
2021/05/08 04:27:47;;;;;;;31.27;12.97;;;4.50;99.90;;;;;;5011317;28;20467;-84
2021/05/08 04:30:14;;;;;;;28.20;12.80;;;4.60;99.90;;;;;;5012199;28;20446;-84
2021/05/08 04:32:41;;;;;;;32.30;15.07;;;4.60;99.90;;;;;;5015701;28;21029;-83
2021/05/08 04:35:08;;;;;;;28.70;13.97;;;4.70;99.90;;;;;;5014620;28;20460;-83
2021/05/08 04:37:34;;;;;;;30.13;13.47;;;4.70;99.90;;;;;;5015181;28;20493;-84
2021/05/08 04:40:00;;;;;;;30.90;13.63;;;4.80;99.90;;;;;;5015263;28;20468;-83
2021/05/08 04:42:28;;;;;;;23.83;10.90;;;4.90;99.90;;;;;;5015762;28;20471;-85
2021/05/08 04:44:54;;;;;;;19.27;2.03;;;5.10;99.90;;;;;;5015079;28;20460;-86
2021/05/08 04:47:21;;;;;;;56.67;37.70;;;7.10;99.90;;;;;;5013524;28;20450;-86
2021/05/08 04:49:47;;;;;;;45.20;9.90;;;8.10;99.90;;;;;;5012676;28;20458;-87
2021/05/08 04:52:17;;;;;;;45.50;9.73;;;8.60;99.90;;;;;;5012809;28;20860;-87
2021/05/08 04:54:43;;;;;;;49.23;10.43;;;8.80;99.90;;;;;;5011862;28;20479;-87
2021/05/08 04:57:09;;;;;;;28.40;9.33;;;9.10;99.90;;;;;;5006386;28;20605;-86
2021/05/08 04:59:36;;;;;;;28.90;9.90;;;8.70;99.90;;;;;;5011654;28;20821;-85
2021/05/08 05:02:03;;;;;;;27.10;10.70;;;8.40;99.90;;;;;;5012452;28;20458;-85
2021/05/08 05:04:29;;;;;;;25.20;9.80;;;8.00;99.90;;;;;;5005734;28;20454;-86
2021/05/08 05:06:55;;;;;;;25.10;10.10;;;7.70;99.90;;;;;;5008716;28;20599;-85
2021/05/08 05:09:23;;;;;;;27.20;10.87;;;7.50;99.90;;;;;;5011735;28;20970;-86
2021/05/08 05:11:49;;;;;;;26.13;10.00;;;7.30;99.90;;;;;;5012432;28;20982;-87
2021/05/08 05:14:16;;;;;;;27.00;10.20;;;7.00;99.90;;;;;;5001891;28;20798;-85
2021/05/08 05:16:43;;;;;;;26.47;10.37;;;6.90;99.90;;;;;;5014938;28;20485;-86
2021/05/08 05:19:09;;;;;;;25.37;10.27;;;6.80;99.90;;;;;;5014504;28;20511;-85
2021/05/08 05:21:35;;;;;;;26.13;10.50;;;6.70;99.90;;;;;;5012554;28;20463;-85
2021/05/08 05:24:02;;;;;;;25.53;9.50;;;6.70;99.90;;;;;;5012940;28;20524;-86
2021/05/08 05:26:28;;;;;;;23.13;9.23;;;6.60;99.90;;;;;;5012652;28;20469;-86
2021/05/08 05:28:55;;;;;;;25.30;9.53;;;6.60;99.90;;;;;;5012244;28;20468;-86
2021/05/08 05:31:21;;;;;;;27.47;10.63;;;6.60;99.90;;;;;;5012398;28;20460;-86
2021/05/08 05:33:48;;;;;;;25.90;9.70;;;6.70;99.90;;;;;;5013007;28;20820;-84
2021/05/08 05:36:15;;;;;;;26.40;9.80;;;6.70;99.90;;;;;;5009478;28;20472;-85
2021/05/08 05:38:42;;;;;;;27.07;10.00;;;6.80;99.90;;;;;;5012634;28;20503;-86
2021/05/08 05:41:08;;;;;;;24.97;9.90;;;7.00;99.90;;;;;;5012151;28;20457;-86
2021/05/08 05:43:35;;;;;;;24.57;8.90;;;7.10;99.90;;;;;;5010102;28;20425;-86
2021/05/08 05:46:04;;;;;;;27.73;9.87;;;7.20;99.90;;;;;;5012508;28;20523;-85
2021/05/08 05:48:30;;;;;;;29.20;10.10;;;7.40;99.90;;;;;;5011108;28;21143;-85
2021/05/08 05:50:57;;;;;;;25.23;9.83;;;7.60;99.90;;;;;;5012095;28;20454;-88
2021/05/08 05:53:23;;;;;;;28.13;10.63;;;7.70;99.90;;;;;;5012988;28;20536;-86
2021/05/08 05:55:50;;;;;;;22.73;9.00;;;7.90;99.90;;;;;;5011526;28;20464;-87
2021/05/08 05:58:16;;;;;;;27.90;10.20;;;7.90;99.90;;;;;;5010459;28;20571;-87
2021/05/08 06:00:42;;;;;;;25.47;10.60;;;8.00;99.90;;;;;;5011898;28;20491;-88
2021/05/08 06:03:11;;;;;;;23.70;9.27;;;8.20;99.90;;;;;;5010825;28;20978;-87
2021/05/08 06:05:37;;;;;;;24.47;9.00;;;8.80;99.90;;;;;;5011603;28;20457;-86
2021/05/08 06:08:04;;;;;;;22.90;7.97;;;8.40;99.90;;;;;;5011510;28;20466;-87
2021/05/08 06:10:31;;;;;;;22.70;7.60;;;8.40;99.90;;;;;;5014987;28;20484;-87
2021/05/08 06:12:57;;;;;;;25.50;9.70;;;8.50;99.90;;;;;;5013836;28;20453;-87
2021/05/08 06:15:23;;;;;;;24.00;8.53;;;8.60;99.90;;;;;;5009157;28;20462;-84
2021/05/08 06:17:50;;;;;;;23.70;7.60;;;8.60;99.90;;;;;;5008877;28;20506;-84
2021/05/08 06:20:16;;;;;;;22.90;7.50;;;8.60;99.90;;;;;;5015630;28;20837;-85
2021/05/08 06:22:43;;;;;;;32.43;7.87;;;8.80;99.90;;;;;;5009449;28;20454;-84
2021/05/08 06:25:11;;;;;;;34.57;9.77;;;8.90;99.90;;;;;;5012301;28;20459;-87
2021/05/08 06:27:37;;;;;;;37.27;8.33;;;9.00;99.90;;;;;;5014604;28;20469;-88
2021/05/08 06:30:05;;;;;;;35.00;8.10;;;9.20;99.90;;;;;;5014247;28;20456;-88
2021/05/08 06:32:31;;;;;;;35.93;8.30;;;9.40;99.90;;;;;;5002668;28;20462;-87
2021/05/08 06:34:58;;;;;;;27.83;7.27;;;9.60;99.90;;;;;;5012146;28;20976;-89
2021/05/08 06:37:24;;;;;;;35.03;7.13;;;9.80;99.90;;;;;;5009326;28;20490;-87
2021/05/08 06:39:50;;;;;;;31.90;6.70;;;10.00;99.90;;;;;;5010104;28;20457;-89
2021/05/08 06:42:18;;;;;;;36.77;7.03;;;10.30;99.90;;;;;;5013137;28;20462;-87
2021/05/08 06:44:44;;;;;;;66.93;19.27;;;10.50;99.90;;;;;;5011126;28;20458;-88
2021/05/08 06:47:14;;;;;;;1999.90;999.90;;;10.70;99.90;;;;;;5005501;28;20479;-87
2021/05/08 06:49:41;;;;;;;1999.90;999.90;;;11.00;99.90;;;;;;5007420;28;21119;-88
2021/05/08 06:52:08;;;;;;;1999.90;999.90;;;11.20;99.90;;;;;;5011384;28;20457;-87
2021/05/08 06:54:34;;;;;;;89.83;27.60;;;11.50;99.90;;;;;;4999081;28;20450;-88
2021/05/08 06:57:01;;;;;;;59.70;7.10;;;11.70;99.90;;;;;;5006730;28;20515;-89
2021/05/08 06:59:28;;;;;;;34.60;4.93;;;11.90;99.90;;;;;;5014841;28;20493;-89
2021/05/08 07:01:54;;;;;;;12.17;6.37;;;12.10;99.90;;;;;;5014079;28;20511;-88
2021/05/08 07:04:20;;;;;;;8.47;3.90;;;12.30;99.90;;;;;;5014836;28;20450;-86
2021/05/08 07:06:47;;;;;;;6.97;3.60;;;12.50;99.90;;;;;;5020894;28;20850;-87
2021/05/08 07:09:13;;;;;;;8.50;4.17;;;12.70;99.90;;;;;;5032772;28;20450;-87
2021/05/08 07:11:40;;;;;;;8.00;3.90;;;13.00;99.90;;;;;;5027609;28;20517;-86
2021/05/08 07:14:06;;;;;;;8.17;3.90;;;13.10;99.90;;;;;;5034134;28;20462;-85
2021/05/08 07:16:33;;;;;;;7.00;3.43;;;13.40;99.90;;;;;;5029067;28;20485;-87
2021/05/08 07:19:00;;;;;;;8.17;4.37;;;13.60;99.90;;;;;;5037480;28;20488;-87
2021/05/08 07:21:26;;;;;;;7.87;4.57;;;14.00;99.90;;;;;;5028978;28;20474;-86
2021/05/08 07:23:52;;;;;;;6.60;3.27;;;14.50;99.90;;;;;;5038198;28;20489;-86
2021/05/08 07:26:19;;;;;;;7.10;4.00;;;14.80;99.10;;;;;;5037313;28;21048;-88
2021/05/08 07:28:46;;;;;;;7.70;3.40;;;15.30;99.50;;;;;;5038349;28;20438;-87
2021/05/08 07:31:12;;;;;;;8.70;3.87;;;15.30;97.70;;;;;;5029050;28;20472;-85
2021/05/08 07:33:40;;;;;;;8.60;3.40;;;15.30;94.60;;;;;;5033707;28;20468;-87
2021/05/08 07:36:07;;;;;;;6.33;2.70;;;15.30;94.80;;;;;;5038060;28;20529;-87
2021/05/08 07:38:33;;;;;;;9.23;4.33;;;15.60;95.80;;;;;;5037649;28;20524;-87
2021/05/08 07:40:59;;;;;;;7.43;2.90;;;15.80;96.10;;;;;;5034554;28;20461;-87
2021/05/08 07:43:26;;;;;;;8.73;3.17;;;15.90;94.60;;;;;;5034862;28;20446;-86
2021/05/08 07:45:52;;;;;;;7.97;4.07;;;15.90;92.20;;;;;;5037726;28;20426;-86
2021/05/08 07:48:18;;;;;;;6.83;3.00;;;15.50;90.50;;;;;;5036606;28;20476;-86
2021/05/08 07:50:45;;;;;;;8.13;4.10;;;15.20;91.70;;;;;;5037950;28;20454;-87
2021/05/08 07:53:12;;;;;;;6.10;2.93;;;15.80;94.60;;;;;;5037336;28;20501;-84
2021/05/08 07:55:38;;;;;;;9.70;3.60;;;15.80;90.80;;;;;;5037691;28;20517;-85
2021/05/08 07:58:05;;;;;;;10.30;3.10;;;16.00;92.00;;;;;;5037664;28;20470;-86
2021/05/08 08:00:31;;;;;;;6.97;3.67;;;16.00;90.10;;;;;;5036746;28;20480;-85
2021/05/08 08:02:58;;;;;;;8.27;3.00;;;15.90;87.20;;;;;;5036598;28;20470;-86
2021/05/08 08:05:24;;;;;;;9.20;3.07;;;15.90;87.90;;;;;;5027265;28;20485;-85
2021/05/08 08:07:51;;;;;;;7.30;3.20;;;16.10;84.10;;;;;;5033735;28;20513;-85
2021/05/08 08:10:18;;;;;;;6.60;2.80;;;16.20;85.70;;;;;;5030617;28;20442;-84
2021/05/08 08:12:44;;;;;;;6.43;2.40;;;16.10;82.60;;;;;;5027938;28;82750;-85
2021/05/08 08:15:12;;;;;;;6.93;3.70;;;16.20;89.60;;;;;;5036274;28;20478;-85
2021/05/08 08:17:39;;;;;;;7.60;3.33;;;16.40;84.40;;;;;;5034908;28;20557;-84
2021/05/08 08:20:07;;;;;;;6.67;2.93;;;16.60;84.40;;;;;;5027050;28;20477;-85
2021/05/08 08:22:34;;;;;;;7.13;3.53;;;16.50;84.20;;;;;;5030686;28;20464;-87
2021/05/08 08:25:01;;;;;;;6.10;3.00;;;16.50;83.20;;;;;;5021982;28;20449;-86
2021/05/08 08:27:27;;;;;;;6.43;2.43;;;16.90;81.20;;;;;;5013802;28;20478;-85
2021/05/08 08:29:54;;;;;;;6.50;2.80;;;17.30;80.60;;;;;;5006239;28;20452;-85
2021/05/08 08:32:20;;;;;;;6.50;3.03;;;17.50;78.60;;;;;;5001148;28;20526;-86
2021/05/08 08:34:47;;;;;;;8.10;2.97;;;17.60;79.20;;;;;;5004459;28;20966;-86
2021/05/08 08:37:13;;;;;;;6.30;2.50;;;17.80;75.90;;;;;;5013617;28;20473;-85
2021/05/08 08:39:39;;;;;;;7.17;2.80;;;18.30;76.80;;;;;;5014160;28;20492;-86
2021/05/08 08:42:08;;;;;;;9.10;2.90;;;18.10;74.90;;;;;;5005836;28;20985;-89
2021/05/08 08:44:34;;;;;;;5.90;3.00;;;17.90;77.30;;;;;;5013329;28;20457;-86
2021/05/08 08:47:01;;;;;;;6.60;2.87;;;17.40;77.00;;;;;;5011945;28;20491;-86
2021/05/08 08:49:27;;;;;;;6.90;2.47;;;16.90;74.30;;;;;;5000897;28;20461;-87
2021/05/08 08:51:53;;;;;;;6.27;2.30;;;16.70;79.60;;;;;;4995528;28;20454;-88
2021/05/08 08:54:20;;;;;;;6.07;2.93;;;17.20;76.90;;;;;;5013347;28;20529;-87
2021/05/08 08:56:46;;;;;;;6.70;2.30;;;17.60;75.40;;;;;;5013024;28;20897;-88
2021/05/08 08:59:18;;;;;;;6.20;2.70;;;17.80;73.40;;;;;;5011873;28;20882;-88
2021/05/08 09:01:46;;;;;;;6.40;2.90;;;17.60;72.00;;;;;;5011813;28;20480;-90
2021/05/08 09:04:13;;;;;;;5.90;2.30;;;17.40;72.60;;;;;;5013399;28;20840;-90
2021/05/08 09:06:40;;;;;;;8.53;3.40;;;17.30;74.30;;;;;;5012673;28;20480;-88
2021/05/08 09:09:09;;;;;;;7.20;3.13;;;17.60;74.40;;;;;;5013242;28;20823;-89
2021/05/08 09:11:46;;;;;;;5.10;2.40;;;17.70;75.40;;;;;;4997733;28;20462;-88
2021/05/08 09:14:18;;;;;;;7.23;2.80;;;18.10;75.50;;;;;;4993790;28;20955;-88
2021/05/08 09:17:05;;;;;;;6.60;3.13;;;17.70;70.90;;;;;;5009153;28;20502;-89
2021/05/08 09:19:32;;;;;;;6.23;2.80;;;17.50;73.70;;;;;;5012774;28;20484;-87
2021/05/08 09:21:59;;;;;;;10.93;2.90;;;17.60;73.30;;;;;;5006242;28;20479;-90
2021/05/08 09:24:25;;;;;;;6.60;3.33;;;18.00;74.20;;;;;;4993003;28;20494;-87
2021/05/08 09:26:53;;;;;;;11.30;5.80;;;17.80;74.70;;;;;;5008219;28;20469;-87
2021/05/08 09:29:23;;;;;;;7.80;3.30;;;17.90;72.90;;;;;;5012644;28;20448;-85
2021/05/08 09:31:53;;;;;;;8.23;3.03;;;18.20;70.60;;;;;;4997597;28;20461;-86
2021/05/08 09:34:20;;;;;;;6.33;2.30;;;18.00;72.20;;;;;;5002379;28;20519;-86
2021/05/08 09:36:50;;;;;;;6.47;2.30;;;18.20;70.10;;;;;;5011268;28;20512;-85
2021/05/08 09:39:30;;;;;;;6.00;2.20;;;18.60;71.60;;;;;;5021391;28;20905;-84
2021/05/08 09:41:56;;;;;;;5.50;2.30;;;18.60;72.40;;;;;;5025458;28;20443;-84
2021/05/08 09:44:23;;;;;;;5.40;2.30;;;18.70;67.30;;;;;;5019270;28;20460;-83
2021/05/08 09:46:51;;;;;;;6.90;2.30;;;19.10;70.20;;;;;;5023746;28;20596;-83
2021/05/08 09:49:20;;;;;;;7.03;2.43;;;20.00;73.90;;;;;;5040145;28;20460;-83
2021/05/08 09:51:57;;;;;;;6.07;2.30;;;20.60;72.00;;;;;;5038826;28;20474;-83
2021/05/08 09:54:24;;;;;;;6.90;2.67;;;21.20;68.60;;;;;;5022871;28;20481;-83
2021/05/08 09:56:51;;;;;;;5.30;2.43;;;21.50;68.90;;;;;;5015376;28;20502;-83
2021/05/08 09:59:30;;;;;;;5.87;2.33;;;22.60;68.10;;;;;;5015436;28;20478;-83
2021/05/08 10:02:12;;;;;;;5.80;2.70;;;23.60;67.90;;;;;;5016027;28;20450;-84
2021/05/08 10:04:40;;;;;;;6.57;2.33;;;24.50;60.50;;;;;;5015854;28;20442;-84
2021/05/08 10:07:07;;;;;;;6.33;2.70;;;25.50;56.10;;;;;;5008152;28;20477;-85
2021/05/08 10:09:33;;;;;;;5.90;2.90;;;24.80;56.80;;;;;;5025700;28;20466;-84
2021/05/08 10:12:02;;;;;;;6.47;2.47;;;25.70;53.90;;;;;;5028476;28;20549;-85
2021/05/08 10:14:30;;;;;;;7.07;2.27;;;25.20;52.00;;;;;;5011989;28;20553;-84
2021/05/08 10:16:58;;;;;;;5.43;2.07;;;24.90;55.20;;;;;;5025707;23;20465;-83
2021/05/08 10:19:28;;;;;;;5.30;2.40;;;25.30;54.00;;;;;;5051337;28;20567;-85
2021/05/08 10:21:55;;;;;;;5.40;2.37;;;25.60;51.10;;;;;;5048989;28;20507;-84
2021/05/08 10:24:22;;;;;;;5.70;2.40;;;25.50;52.10;;;;;;5046093;28;20955;-84
2021/05/08 10:26:50;;;;;;;5.97;2.43;;;24.70;49.80;;;;;;5045229;28;20485;-85
2021/05/08 10:29:18;;;;;;;7.10;2.80;;;24.60;48.60;;;;;;5045794;28;20492;-84
2021/05/08 10:31:45;;;;;;;5.53;2.20;;;24.30;52.30;;;;;;5046270;28;20445;-84
2021/05/08 10:34:12;;;;;;;5.40;2.53;;;24.30;51.20;;;;;;5046156;28;20441;-85
2021/05/08 10:36:45;;;;;;;6.23;2.60;;;23.90;50.90;;;;;;5045870;28;20499;-84
2021/05/08 10:39:11;;;;;;;6.03;2.63;;;22.90;50.60;;;;;;5047628;28;20480;-83
2021/05/08 10:41:51;;;;;;;6.93;3.17;;;23.00;49.70;;;;;;5027789;28;20479;-84
2021/05/08 10:44:44;;;;;;;9.60;3.40;;;22.30;49.30;;;;;;5045309;28;20456;-82
2021/05/08 10:47:14;;;;;;;6.83;2.37;;;22.10;51.20;;;;;;5044333;28;20501;-83
2021/05/08 10:49:40;;;;;;;7.10;3.07;;;22.60;51.10;;;;;;5044571;28;20499;-84
2021/05/08 10:52:07;;;;;;;6.30;2.57;;;22.30;50.70;;;;;;5042210;28;20451;-84
2021/05/08 10:54:54;;;;;;;7.00;3.00;;;22.00;50.80;;;;;;5042661;28;20441;-83
2021/05/08 10:57:24;;;;;;;6.40;2.90;;;21.30;53.80;;;;;;5044885;28;21092;-85
2021/05/08 11:00:27;;;;;;;8.03;3.00;;;21.40;52.20;;;;;;5044812;28;20975;-85
2021/05/08 11:03:06;;;;;;;5.80;3.03;;;20.70;53.00;;;;;;5044338;28;20440;-85
2021/05/08 11:05:35;;;;;;;9.17;3.17;;;20.80;52.30;;;;;;5046238;28;20536;-84
2021/05/08 11:08:41;;;;;;;7.10;3.03;;;20.80;50.80;;;;;;5044468;28;20481;-85
2021/05/08 11:11:09;;;;;;;6.10;2.60;;;21.30;52.20;;;;;;5041741;28;20456;-86
2021/05/08 11:13:56;;;;;;;7.60;2.67;;;21.30;52.60;;;;;;5045245;28;20564;-86
2021/05/08 11:16:24;;;;;;;7.37;3.33;;;21.30;50.80;;;;;;5048909;28;20457;-84
2021/05/08 11:18:52;;;;;;;6.80;2.57;;;20.90;51.90;;;;;;5056367;28;20477;-84
2021/05/08 11:21:41;;;;;;;8.47;2.80;;;20.50;51.40;;;;;;5058926;28;20433;-84
2021/05/08 11:24:12;;;;;;;5.13;2.43;;;20.40;51.40;;;;;;5052527;28;20815;-83
2021/05/08 11:26:44;;;;;;;5.80;1.90;;;19.60;49.20;;;;;;5039762;28;20507;-84
2021/05/08 11:29:15;;;;;;;4.90;2.13;;;19.50;52.50;;;;;;5042954;28;20600;-84
2021/05/08 11:31:45;;;;;;;7.17;2.73;;;19.60;51.80;;;;;;5041032;28;20456;-85
2021/05/08 11:34:15;;;;;;;5.93;2.60;;;19.90;52.30;;;;;;5049035;28;20471;-84
2021/05/08 11:37:03;;;;;;;7.67;2.20;;;19.90;54.40;;;;;;5047347;28;20535;-85
2021/05/08 11:39:33;;;;;;;6.70;2.20;;;19.20;52.50;;;;;;5020193;28;20496;-83
2021/05/08 11:42:01;;;;;;;6.57;2.30;;;19.90;55.00;;;;;;5039696;28;20520;-85
2021/05/08 11:44:29;;;;;;;5.50;2.13;;;19.90;54.80;;;;;;5039530;28;20477;-84
2021/05/08 11:47:01;;;;;;;8.27;2.03;;;20.60;52.80;;;;;;5031692;28;20477;-87
2021/05/08 11:49:30;;;;;;;6.00;2.00;;;20.60;54.90;;;;;;5039347;28;20476;-85
2021/05/08 11:51:57;;;;;;;4.40;1.90;;;20.30;54.40;;;;;;5025185;28;21052;-86
2021/05/08 11:54:25;;;;;;;5.33;1.67;;;20.00;52.90;;;;;;5024233;28;20548;-86
2021/05/08 11:56:54;;;;;;;4.50;1.70;;;20.70;53.20;;;;;;5021715;28;20872;-84
2021/05/08 11:59:34;;;;;;;5.37;1.60;;;20.40;50.80;;;;;;5021891;28;20584;-85
2021/05/08 12:02:14;;;;;;;6.00;2.03;;;19.60;51.90;;;;;;5025783;28;20524;-82
2021/05/08 12:04:49;;;;;;;5.00;1.90;;;19.40;53.60;;;;;;5037937;28;20472;-85
2021/05/08 12:07:24;;;;;;;5.30;1.83;;;19.60;54.10;;;;;;5037241;28;20551;-84
2021/05/08 12:09:52;;;;;;;6.43;2.43;;;19.60;54.40;;;;;;5037256;28;20474;-84
2021/05/08 12:12:18;;;;;;;5.37;2.10;;;19.60;53.20;;;;;;5036332;28;20488;-86
2021/05/08 12:14:46;;;;;;;7.00;2.73;;;19.30;54.10;;;;;;5041902;28;20459;-86
2021/05/08 12:17:13;;;;;;;5.30;2.20;;;19.40;53.70;;;;;;5036782;28;20550;-86
2021/05/08 12:19:44;;;;;;;5.17;2.10;;;19.10;53.60;;;;;;5039438;28;20576;-87
2021/05/08 12:22:11;;;;;;;6.70;2.60;;;19.60;58.70;;;;;;5039088;28;20548;-86
2021/05/08 12:24:51;;;;;;;4.33;1.50;;;19.50;54.10;;;;;;5038089;28;20464;-87
2021/05/08 12:27:22;;;;;;;6.90;2.50;;;19.90;53.70;;;;;;5038460;28;20504;-82
2021/05/08 12:29:56;;;;;;;5.00;2.20;;;19.90;54.40;;;;;;5039610;28;20480;-86
2021/05/08 12:32:23;;;;;;;5.60;2.17;;;20.60;54.90;;;;;;5038796;28;20467;-86
2021/05/08 12:34:54;;;;;;;5.00;1.57;;;20.60;55.00;;;;;;5040190;28;20511;-85
2021/05/08 12:37:22;;;;;;;5.80;2.30;;;19.90;56.20;;;;;;5021011;28;20477;-87
2021/05/08 12:39:49;;;;;;;6.23;2.37;;;19.70;53.90;;;;;;5038950;28;20515;-86
2021/05/08 12:42:20;;;;;;;8.27;1.63;;;19.40;55.00;;;;;;5038783;28;20611;-85
2021/05/08 12:44:50;;;;;;;6.93;1.50;;;19.10;56.70;;;;;;5039333;28;20491;-84
2021/05/08 12:50:10;;;;;;;6.20;1.60;;;18.70;56.20;;;;;;5224389;23;20499;-85
2021/05/08 12:52:42;;;;;;;5.33;1.60;;;18.20;58.00;;;;;;5038868;28;20507;-83
2021/05/08 12:55:26;;;;;;;5.57;2.60;;;18.10;58.50;;;;;;5039872;28;20872;-84
2021/05/08 13:01:00;;;;;;;;;;;;;;;;;;;;;
2021/05/08 13:03:31;;;;;;;4.53;1.70;;;17.50;65.00;;;;;;5037997;28;20447;-85
2021/05/08 13:05:58;;;;;;;5.87;2.10;;;17.20;67.80;;;;;;5036913;28;20472;-86
2021/05/08 13:08:42;;;;;;;6.90;1.83;;;16.70;71.90;;;;;;5038940;28;20470;-86
2021/05/08 13:11:08;;;;;;;8.10;2.40;;;15.90;75.30;;;;;;5037840;28;20487;-87
2021/05/08 13:13:35;;;;;;;4.93;1.90;;;15.30;82.70;;;;;;5040145;28;20488;-86
2021/05/08 13:16:01;;;;;;;5.00;1.90;;;15.20;90.90;;;;;;5039410;28;20445;-86
2021/05/08 13:18:28;;;;;;;5.13;2.07;;;15.10;93.90;;;;;;5042590;28;20480;-84
2021/05/08 13:20:54;;;;;;;7.50;2.23;;;15.00;99.90;;;;;;5049999;28;20916;-85
2021/05/08 13:23:21;;;;;;;4.60;1.70;;;14.80;99.90;;;;;;5047490;28;20897;-85
2021/05/08 13:25:49;;;;;;;5.13;2.10;;;14.60;99.90;;;;;;5056211;28;20456;-91
2021/05/08 13:28:15;;;;;;;5.87;2.30;;;14.50;99.90;;;;;;5056920;28;20464;-82
2021/05/08 13:30:42;;;;;;;5.77;2.17;;;14.20;99.90;;;;;;5057735;28;20424;-87
2021/05/08 13:33:08;;;;;;;9.27;2.30;;;14.20;99.90;;;;;;5043015;28;20481;-84